Hopkins, South Carolina
Current Conditions -  °F | °C
As of 7:58 PM on Friday 21 Nov 2014 (Local Time) from KMMT Reporting Station
Clear Clear  
Wind Chill: 46°   Ceiling: Unl
Heat Index: 49°   Visibility: 10mi
Dew Point: 21°   Wind: 7mph
Humidity: 34%   Direction: 60°ENE
Pressure: 30.45"   Gusts: NA
Location:  33.9°N, 80.88°W
Report Text: KMMT 220058Z 06006KT 10SM CLR 09/M06 A3045 RMK AO2A SLP315 T00931060
Loading
Personal Weather Stations






























Interactive Weather Map New forecast layout! Learn more

10-Day Weather Forecast

Advertisements
Track Severe Weather on mobile